Anco, Kentucky
Current Conditions -  °F | °C
As of 5:53 PM on Wednesday 22 Oct 2014 (Local Time) from KJKL Reporting Station
Overcast Overcast  
Wind Chill: 49°   Ceiling: 3500
Heat Index: 49°   Visibility: 10mi
Dew Point: 41°   Wind: 3mph
Humidity: 74%   Direction: NA
Pressure: 30.23"   Gusts: NA
Location:  37.2376°N, 83.0326°W
Report Text: KJKL 222153Z AUTO VRB03KT 10SM FEW023 OVC035 09/05 A3023 RMK AO2 SLP239 T00940050
Loading
Personal Weather Stations






























Interactive Weather Map
Tropical Storm Tracking
New forecast layout! Learn more

10-Day Weather Forecast

Advertisements
Track Severe Weather on mobile